Time;durP1;ratioP1;P1;durP2;ratioP2;P2;SDS_P1;SDS_P2;PMS_P1;PMS_P2;Temp;Humidity;BMP_temperature;BMP_pressure;BME280_temperature;BME280_humidity;BME280_pressure;Samples;Min_cycle;Max_cycle;Signal;HPM_P1;HPM_P2
2021/07/12 00:00:23;;;;;;;12.27;5.57;;;;;;;14.98;100.00;100761.16;5038121;28;20041;-72
2021/07/12 00:02:52;;;;;;;11.07;6.03;;;;;;;14.90;100.00;100763.13;5037670;28;20041;-72
2021/07/12 00:05:20;;;;;;;11.02;6.35;;;;;;;14.93;100.00;100768.16;5033422;28;20041;-71
2021/07/12 00:07:49;;;;;;;11.57;6.78;;;;;;;15.00;100.00;100774.41;5033521;28;20045;-71
2021/07/12 00:10:20;;;;;;;13.63;5.93;;;;;;;14.96;100.00;100767.75;5036455;28;20045;-71
2021/07/12 00:12:49;;;;;;;9.50;5.82;;;;;;;14.90;100.00;100765.81;5036985;28;20041;-71
2021/07/12 00:15:20;;;;;;;9.52;5.88;;;;;;;14.87;100.00;100755.44;5031667;28;20088;-72
2021/07/12 00:17:48;;;;;;;9.15;5.75;;;;;;;14.74;100.00;100762.38;5037639;28;20053;-71
2021/07/12 00:20:17;;;;;;;10.15;5.63;;;;;;;14.65;100.00;100755.47;5034115;28;20298;-71
2021/07/12 00:22:46;;;;;;;14.30;5.93;;;;;;;14.67;100.00;100750.72;5037053;28;20049;-72
2021/07/12 00:25:14;;;;;;;12.73;5.15;;;;;;;14.73;100.00;100752.66;5034022;28;20048;-71
2021/07/12 00:27:42;;;;;;;10.18;5.78;;;;;;;15.00;100.00;100752.91;5037028;28;20048;-71
2021/07/12 00:30:13;;;;;;;9.52;5.60;;;;;;;14.80;100.00;100747.34;5040786;28;20455;-71
2021/07/12 00:32:43;;;;;;;10.30;6.10;;;;;;;14.77;100.00;100739.66;5034905;28;20326;-71
2021/07/12 00:35:12;;;;;;;7.85;5.50;;;;;;;14.73;100.00;100733.84;5038604;28;20504;-71
2021/07/12 00:37:41;;;;;;;9.15;6.22;;;;;;;14.77;100.00;100736.97;5033854;28;20049;-71
2021/07/12 00:40:12;;;;;;;11.43;6.00;;;;;;;14.68;100.00;100733.56;5034756;28;20060;-71
2021/07/12 00:42:40;;;;;;;12.98;6.63;;;;;;;14.60;100.00;100722.91;5040755;28;20214;-71
2021/07/12 00:45:12;;;;;;;13.32;7.88;;;;;;;14.48;100.00;100724.47;5030391;28;20072;-71
2021/07/12 00:47:40;;;;;;;12.13;5.85;;;;;;;14.49;100.00;100723.44;5038553;28;20060;-71
2021/07/12 00:50:11;;;;;;;13.88;6.20;;;;;;;14.57;100.00;100717.94;5035092;28;20052;-71
2021/07/12 00:52:39;;;;;;;15.10;6.80;;;;;;;14.62;100.00;100718.22;5035452;28;20063;-71
2021/07/12 00:55:15;;;;;;;13.48;7.85;;;;;;;14.67;100.00;100726.53;5035275;28;20037;-71
2021/07/12 00:57:43;;;;;;;14.20;7.05;;;;;;;14.27;100.00;100723.41;5035799;28;20049;-71
2021/07/12 01:00:13;;;;;;;13.52;7.63;;;;;;;14.18;100.00;100717.31;5039455;28;20305;-72
2021/07/12 01:02:42;;;;;;;11.25;6.68;;;;;;;14.22;100.00;100712.44;5038330;28;20050;-71
2021/07/12 01:05:16;;;;;;;17.23;8.05;;;;;;;14.16;100.00;100707.78;5037101;28;20045;-71
2021/07/12 01:07:44;;;;;;;9.93;5.22;;;;;;;14.57;100.00;100710.72;5040685;28;20064;-71
2021/07/12 01:10:14;;;;;;;11.15;6.13;;;;;;;14.73;100.00;100724.94;5036172;28;20041;-71
2021/07/12 01:12:48;;;;;;;14.40;6.22;;;;;;;14.77;100.00;100708.25;5040021;28;20411;-71
2021/07/12 01:15:18;;;;;;;9.75;5.57;;;;;;;14.89;100.00;100713.91;5041427;28;20057;-71
2021/07/12 01:17:53;;;;;;;11.07;6.53;;;;;;;14.95;100.00;100718.50;5039290;28;20049;-70
2021/07/12 01:21:07;;;;;;;10.75;6.03;;;;;;;14.54;100.00;100710.25;5041212;28;20064;-70
2021/07/12 01:24:15;;;;;;;10.35;6.43;;;;;;;14.72;100.00;100707.16;5036976;28;20421;-71
2021/07/12 01:27:15;;;;;;;11.02;6.38;;;;;;;14.78;100.00;100698.31;5038775;28;20384;-71
2021/07/12 01:30:05;;;;;;;10.57;6.30;;;;;;;14.83;100.00;100692.34;5040387;28;20053;-71
2021/07/12 01:32:44;;;;;;;10.93;6.05;;;;;;;15.11;100.00;100689.66;5040052;28;20114;-72
2021/07/12 01:35:19;;;;;;;12.70;6.95;;;;;;;15.21;100.00;100683.94;5035393;28;20469;-71
2021/07/12 01:37:59;;;;;;;10.60;5.90;;;;;;;15.21;100.00;100683.94;5040319;28;20106;-71
2021/07/12 01:40:35;;;;;;;10.02;6.15;;;;;;;15.16;100.00;100676.47;5039877;28;20045;-71
2021/07/12 01:43:08;;;;;;;9.30;5.80;;;;;;;15.26;100.00;100668.06;5036740;28;20052;-72
2021/07/12 01:45:43;;;;;;;9.27;6.43;;;;;;;15.24;100.00;100672.78;5038358;28;20095;-71
2021/07/12 01:48:18;;;;;;;12.23;5.68;;;;;;;15.05;100.00;100677.00;5037253;28;20429;-72
2021/07/12 01:50:49;;;;;;;;;;;;;;;15.13;100.00;100680.38;5041658;28;20328;-72
2021/07/12 01:53:19;;;;;;;9.43;6.03;;;;;;;15.17;100.00;100674.59;5038388;28;20354;-71
2021/07/12 01:55:56;;;;;;;8.93;5.40;;;;;;;15.09;100.00;100679.09;5036455;28;20318;-71
2021/07/12 01:58:30;;;;;;;11.57;5.45;;;;;;;15.12;100.00;100684.09;5041920;28;20048;-71
2021/07/12 02:00:59;;;;;;;8.85;6.10;;;;;;;15.09;100.00;100686.34;5041717;28;20354;-71
2021/07/12 02:03:30;;;;;;;11.25;5.40;;;;;;;15.13;100.00;100675.00;5032225;28;20349;-72
2021/07/12 02:06:02;;;;;;;7.97;5.07;;;;;;;14.88;100.00;100679.16;5038631;28;20041;-72
2021/07/12 02:08:30;;;;;;;9.63;5.85;;;;;;;14.80;100.00;100677.47;5037424;28;20064;-71
2021/07/12 02:10:59;;;;;;;9.80;5.25;;;;;;;14.99;100.00;100675.94;5039488;28;20044;-71
2021/07/12 02:13:28;;;;;;;7.53;5.10;;;;;;;15.15;100.00;100672.97;5035598;28;20079;-72
2021/07/12 02:15:58;;;;;;;8.27;5.55;;;;;;;15.18;100.00;100666.34;5036846;28;20303;-72
2021/07/12 02:18:29;;;;;;;6.97;5.07;;;;;;;15.23;100.00;100671.97;5038894;28;20060;-71
2021/07/12 02:20:58;;;;;;;7.43;4.28;;;;;;;15.10;100.00;100669.19;5035547;28;20056;-70
2021/07/12 02:23:26;;;;;;;8.57;5.00;;;;;;;15.49;100.00;100652.47;5034407;28;20034;-71
2021/07/12 02:25:55;;;;;;;7.25;5.03;;;;;;;15.72;100.00;100645.94;5037337;28;20038;-71
2021/07/12 02:28:23;;;;;;;9.43;5.70;;;;;;;15.79;100.00;100638.75;5036496;28;20103;-70
2021/07/12 02:30:53;;;;;;;8.70;5.88;;;;;;;15.75;100.00;100642.84;5040763;28;20049;-71
2021/07/12 02:33:22;;;;;;;9.50;5.45;;;;;;;15.66;100.00;100633.25;5035972;28;20045;-71
2021/07/12 02:35:53;;;;;;;10.82;6.25;;;;;;;15.71;100.00;100630.81;5039306;28;20104;-70
2021/07/12 02:38:21;;;;;;;9.85;5.88;;;;;;;15.77;100.00;100629.16;5034854;28;20052;-70
2021/07/12 02:40:49;;;;;;;13.68;7.32;;;;;;;15.79;100.00;100622.59;5040467;28;20040;-71
2021/07/12 02:43:18;;;;;;;9.43;6.47;;;;;;;15.77;100.00;100608.44;5039199;28;20038;-70
2021/07/12 02:45:47;;;;;;;8.77;5.78;;;;;;;15.81;100.00;100611.63;5033891;28;20480;-71
2021/07/12 02:48:15;;;;;;;9.40;6.68;;;;;;;15.93;100.00;100607.28;5037135;28;20294;-71
2021/07/12 02:50:43;;;;;;;9.10;6.45;;;;;;;15.76;100.00;100614.88;5036094;28;20057;-71
2021/07/12 02:53:18;;;;;;;7.68;6.03;;;;;;;15.73;100.00;100617.16;5038893;28;20380;-71
2021/07/12 02:55:46;;;;;;;9.10;6.28;;;;;;;15.93;100.00;100606.47;5039973;28;20111;-71
2021/07/12 02:58:14;;;;;;;8.20;5.70;;;;;;;16.01;100.00;100595.50;5034949;28;20041;-71
2021/07/12 03:00:43;;;;;;;10.23;6.32;;;;;;;16.00;100.00;100583.06;5035884;28;20049;-70
2021/07/12 03:03:11;;;;;;;10.30;6.82;;;;;;;15.93;100.00;100590.31;5037760;28;20087;-71
2021/07/12 03:05:39;;;;;;;9.45;5.95;;;;;;;15.73;100.00;100585.66;5038627;28;20045;-70
2021/07/12 03:08:10;;;;;;;10.75;6.75;;;;;;;16.01;100.00;100590.94;5037567;28;20095;-71
2021/07/12 03:10:43;;;;;;;9.77;5.85;;;;;;;15.83;100.00;100570.00;5039309;28;20469;-71
2021/07/12 03:13:14;;;;;;;10.77;5.60;;;;;;;15.72;100.00;100565.19;5037579;28;20404;-71
2021/07/12 03:15:46;;;;;;;9.80;6.90;;;;;;;15.71;100.00;100565.38;5034045;28;20068;-71
2021/07/12 03:18:21;;;;;;;12.75;7.05;;;;;;;15.70;100.00;100563.72;5035197;28;20059;-71
2021/07/12 03:20:49;;;;;;;9.88;6.72;;;;;;;15.63;100.00;100571.75;5037057;28;20481;-71
2021/07/12 03:23:18;;;;;;;10.40;7.30;;;;;;;15.49;100.00;100569.03;5037291;28;20048;-71
2021/07/12 03:25:52;;;;;;;8.85;6.03;;;;;;;15.37;100.00;100564.44;5039788;28;20084;-71
2021/07/12 03:28:20;;;;;;;9.80;6.15;;;;;;;15.17;100.00;100565.19;5035931;28;20037;-71
2021/07/12 03:30:48;;;;;;;10.52;6.97;;;;;;;15.07;100.00;100570.91;5032252;28;20453;-71
2021/07/12 03:33:17;;;;;;;12.23;6.45;;;;;;;15.25;100.00;100556.94;5035989;28;20049;-70
2021/07/12 03:35:47;;;;;;;10.98;6.45;;;;;;;15.26;100.00;100560.47;5034140;28;20045;-71
2021/07/12 03:38:17;;;;;;;9.30;6.93;;;;;;;15.33;100.00;100567.50;5038934;28;20044;-71
2021/07/12 03:40:46;;;;;;;10.18;6.18;;;;;;;15.41;100.00;100566.53;5036953;28;20353;-71
2021/07/12 03:43:16;;;;;;;11.65;6.55;;;;;;;15.46;100.00;100566.72;5036516;28;20480;-71
2021/07/12 03:45:53;;;;;;;12.73;6.55;;;;;;;15.57;100.00;100559.13;5033351;28;20329;-71
2021/07/12 03:48:34;;;;;;;10.50;7.32;;;;;;;15.74;100.00;100560.41;5036403;28;20045;-71
2021/07/12 03:51:02;;;;;;;11.20;7.47;;;;;;;15.71;100.00;100550.06;5037238;28;20057;-70
2021/07/12 03:53:32;;;;;;;11.88;7.28;;;;;;;15.82;100.00;100562.94;5032343;28;20060;-71
2021/07/12 03:56:00;;;;;;;11.05;7.75;;;;;;;15.90;100.00;100558.41;5032773;28;20054;-70
2021/07/12 03:58:29;;;;;;;11.05;6.78;;;;;;;15.93;100.00;100558.00;5040039;28;20052;-70
2021/07/12 04:00:57;;;;;;;8.93;6.18;;;;;;;15.86;100.00;100568.75;5035912;28;20037;-70
2021/07/12 04:03:25;;;;;;;9.70;5.70;;;;;;;15.89;100.00;100573.75;5037874;28;20237;-70
2021/07/12 04:05:53;;;;;;;7.50;5.05;;;;;;;15.54;100.00;100581.88;5034051;28;20061;-70
2021/07/12 04:08:21;;;;;;;8.90;5.93;;;;;;;15.50;100.00;100576.06;5035269;28;20324;-70
2021/07/12 04:10:49;;;;;;;8.85;5.43;;;;;;;15.61;100.00;100571.16;5040517;28;20049;-71
2021/07/12 04:13:17;;;;;;;12.07;6.22;;;;;;;15.51;100.00;100571.53;5038438;28;20056;-70
2021/07/12 04:15:47;;;;;;;8.02;5.60;;;;;;;15.49;100.00;100568.19;5039588;28;20095;-70
2021/07/12 04:18:15;;;;;;;12.55;5.95;;;;;;;15.65;100.00;100561.63;5217479;22;20105;-58
2021/07/12 04:20:42;;;;;;;10.50;5.55;;;;;;;15.77;100.00;100549.22;5018146;28;20054;-58
2021/07/12 04:23:10;;;;;;;10.98;6.97;;;;;;;16.08;100.00;100545.16;5017531;28;20041;-60
2021/07/12 04:25:38;;;;;;;11.15;7.30;;;;;;;16.22;100.00;100532.53;5011661;28;20058;-60
2021/07/12 04:28:06;;;;;;;10.27;7.70;;;;;;;16.42;100.00;100524.44;5019544;28;20056;-60
2021/07/12 04:30:34;;;;;;;12.23;7.43;;;;;;;16.52;100.00;100513.22;5018169;28;20053;-60
2021/07/12 04:33:04;;;;;;;9.25;7.40;;;;;;;16.63;100.00;100509.06;5015551;28;20447;-60
2021/07/12 04:35:33;;;;;;;9.88;6.90;;;;;;;16.69;100.00;100514.44;5014617;28;20042;-59
2021/07/12 04:38:01;;;;;;;10.40;7.80;;;;;;;16.70;100.00;100516.09;5019774;28;20037;-60
2021/07/12 04:40:29;;;;;;;10.05;7.00;;;;;;;16.75;100.00;100512.75;5024241;28;20058;-60
2021/07/12 04:42:57;;;;;;;10.90;6.93;;;;;;;16.76;100.00;100509.03;5027560;28;20050;-60
2021/07/12 04:45:27;;;;;;;13.43;7.60;;;;;;;16.76;100.00;100509.03;5021202;28;20065;-60
2021/07/12 04:47:55;;;;;;;11.00;7.95;;;;;;;16.86;100.00;100508.59;5024046;28;20064;-60
2021/07/12 04:50:25;;;;;;;11.05;7.53;;;;;;;16.80;100.00;100504.06;5020655;28;20075;-60
2021/07/12 04:52:52;;;;;;;13.57;8.15;;;;;;;16.77;100.00;100513.41;5021933;28;20428;-60
2021/07/12 04:55:20;;;;;;;10.98;6.97;;;;;;;16.91;100.00;100513.38;5019728;28;20049;-61
2021/07/12 04:57:48;;;;;;;10.60;6.82;;;;;;;16.87;100.00;100513.78;5019595;28;20038;-58
2021/07/12 05:00:17;;;;;;;11.27;6.95;;;;;;;16.99;100.00;100513.97;5019994;28;20104;-58
2021/07/12 05:02:45;;;;;;;10.45;7.13;;;;;;;16.92;100.00;100510.47;5019817;28;20476;-58
2021/07/12 05:05:14;;;;;;;9.75;6.10;;;;;;;17.06;100.00;100505.84;5017278;28;20104;-60
2021/07/12 05:07:43;;;;;;;11.57;6.68;;;;;;;17.07;100.00;100501.28;5022256;28;20048;-60
2021/07/12 05:10:13;;;;;;;9.43;6.05;;;;;;;17.08;100.00;100501.09;5021816;28;20067;-60
2021/07/12 05:12:41;;;;;;;9.90;6.22;;;;;;;17.12;100.00;100496.06;5037388;28;20456;-61
2021/07/12 05:15:10;;;;;;;8.90;6.15;;;;;;;17.12;100.00;100496.91;5019807;28;20345;-60
2021/07/12 05:17:38;;;;;;;9.25;6.25;;;;;;;17.07;100.00;100491.34;5018985;28;20038;-60
2021/07/12 05:20:07;;;;;;;8.05;6.18;;;;;;;17.10;100.00;100490.91;5024038;28;20045;-60
2021/07/12 05:22:35;;;;;;;8.45;6.47;;;;;;;17.14;100.00;100492.13;5022583;28;20041;-60
2021/07/12 05:25:05;;;;;;;8.40;6.07;;;;;;;17.21;100.00;100492.94;5016751;28;20577;-61
2021/07/12 05:27:33;;;;;;;10.43;5.97;;;;;;;17.17;100.00;100496.28;5018322;28;20042;-61
2021/07/12 05:30:01;;;;;;;9.82;6.18;;;;;;;17.32;100.00;100491.44;5016684;28;20138;-60
2021/07/12 05:32:29;;;;;;;13.43;6.90;;;;;;;17.37;100.00;100496.16;5018461;28;20100;-60
2021/07/12 05:34:57;;;;;;;9.00;5.57;;;;;;;17.29;100.00;100488.31;5013610;28;20039;-60
2021/07/12 05:37:25;;;;;;;11.77;7.05;;;;;;;17.32;100.00;100494.13;5017186;28;20034;-60
2021/07/12 05:39:52;;;;;;;11.90;6.63;;;;;;;17.32;100.00;100502.22;5021368;28;20045;-58
2021/07/12 05:42:23;;;;;;;10.13;6.47;;;;;;;17.46;100.00;100496.75;5012964;28;20057;-59
2021/07/12 05:44:51;;;;;;;8.95;6.15;;;;;;;17.52;100.00;100495.88;5010909;28;20046;-60
2021/07/12 05:47:19;;;;;;;10.93;6.57;;;;;;;17.48;100.00;100497.34;5014075;28;20470;-57
2021/07/12 05:49:48;;;;;;;9.82;6.60;;;;;;;17.50;100.00;100492.56;5018999;28;20484;-58
2021/07/12 05:52:16;;;;;;;10.52;7.20;;;;;;;17.62;100.00;100487.28;5018852;28;20045;-60
2021/07/12 05:54:44;;;;;;;9.48;6.47;;;;;;;17.58;100.00;100480.66;5011965;28;20076;-59
2021/07/12 05:57:12;;;;;;;9.40;5.93;;;;;;;17.68;100.00;100476.47;5020431;28;20046;-60
2021/07/12 05:59:41;;;;;;;13.52;6.68;;;;;;;17.75;100.00;100481.81;5018814;28;21048;-59
2021/07/12 06:02:09;;;;;;;11.85;5.70;;;;;;;17.88;100.00;100480.88;5016484;28;20058;-61
2021/07/12 06:04:37;;;;;;;9.15;5.68;;;;;;;17.97;100.00;100476.88;5018384;28;20041;-60
2021/07/12 06:07:05;;;;;;;9.60;6.15;;;;;;;17.99;100.00;100466.69;5017661;28;20056;-60
2021/07/12 06:09:33;;;;;;;8.40;5.60;;;;;;;18.22;100.00;100474.19;5016820;28;20034;-59
2021/07/12 06:12:01;;;;;;;9.88;6.13;;;;;;;18.31;100.00;100468.50;5019704;28;20076;-57
2021/07/12 06:14:29;;;;;;;7.85;5.63;;;;;;;18.21;100.00;100464.41;5012654;28;20041;-60
2021/07/12 06:16:58;;;;;;;11.55;6.35;;;;;;;18.18;100.00;100462.16;5020801;28;20473;-60
2021/07/12 06:19:26;;;;;;;8.13;5.95;;;;;;;18.13;100.00;100456.59;5016838;28;20042;-60
2021/07/12 06:21:54;;;;;;;9.13;6.03;;;;;;;18.17;100.00;100459.69;5019867;28;20049;-60
2021/07/12 06:24:22;;;;;;;7.65;5.57;;;;;;;18.13;100.00;100458.47;5017682;28;20065;-60
2021/07/12 06:26:50;;;;;;;12.23;5.57;;;;;;;18.24;100.00;100457.75;5017068;28;21201;-57
2021/07/12 06:29:20;;;;;;;9.18;6.40;;;;;;;18.36;100.00;100455.16;5018147;28;20041;-57
2021/07/12 06:31:48;;;;;;;8.15;6.00;;;;;;;18.48;100.00;100450.63;5013404;28;20076;-57
2021/07/12 06:34:18;;;;;;;8.30;5.35;;;;;;;18.52;100.00;100454.53;5014527;28;20049;-60
2021/07/12 06:36:46;;;;;;;9.57;5.30;;;;;;;18.56;100.00;100447.63;5018742;28;20053;-60
2021/07/12 06:39:14;;;;;;;7.32;5.32;;;;;;;18.63;100.00;100444.88;5015993;28;20096;-60
2021/07/12 06:41:41;;;;;;;10.52;5.43;;;;;;;18.90;100.00;100448.09;5020253;28;20088;-60
2021/07/12 06:44:09;;;;;;;7.20;5.57;;;;;;;19.20;100.00;100441.88;5013764;28;20104;-58
2021/07/12 06:46:37;;;;;;;6.45;5.07;;;;;;;19.41;100.00;100443.25;5019607;28;20042;-57
2021/07/12 06:49:05;;;;;;;8.65;5.88;;;;;;;19.57;100.00;100439.03;5017003;28;20041;-57
2021/07/12 06:51:34;;;;;;;11.38;5.13;;;;;;;19.84;100.00;100435.13;5021205;28;20049;-57
2021/07/12 06:54:02;;;;;;;8.48;4.97;;;;;;;19.94;100.00;100425.34;5019967;28;20045;-57
2021/07/12 06:56:30;;;;;;;8.23;5.03;;;;;;;20.12;100.00;100432.53;5018382;28;20317;-58
2021/07/12 06:58:58;;;;;;;6.70;5.22;;;;;;;20.24;100.00;100434.44;5018125;28;20041;-58
2021/07/12 07:01:26;;;;;;;7.68;4.72;;;;;;;20.11;100.00;100432.78;5020270;28;20622;-57
2021/07/12 07:03:55;;;;;;;10.70;5.38;;;;;;;20.32;100.00;100425.13;5015072;28;20056;-57
2021/07/12 07:06:23;;;;;;;8.93;5.30;;;;;;;20.22;100.00;100431.97;5014608;28;20038;-58
2021/07/12 07:08:52;;;;;;;8.25;5.75;;;;;;;20.49;100.00;100438.78;5014225;28;20049;-58
2021/07/12 07:11:20;;;;;;;11.43;5.32;;;;;;;20.63;100.00;100429.31;5014202;28;20099;-57
2021/07/12 07:13:48;;;;;;;9.27;4.85;;;;;;;20.51;100.00;100420.38;5016753;28;20084;-57
2021/07/12 07:16:16;;;;;;;6.40;4.68;;;;;;;20.50;100.00;100427.69;5016063;28;20200;-57
2021/07/12 07:18:44;;;;;;;5.82;4.75;;;;;;;20.95;100.00;100423.47;5017146;28;20034;-57
2021/07/12 07:21:12;;;;;;;8.77;4.80;;;;;;;21.24;100.00;100418.03;5015757;28;20049;-57
2021/07/12 07:23:40;;;;;;;6.20;4.22;;;;;;;21.90;100.00;100428.41;5018808;28;20276;-57
2021/07/12 07:26:10;;;;;;;9.00;4.78;;;;;;;22.20;100.00;100417.19;5016287;28;20428;-58
2021/07/12 07:28:38;;;;;;;10.25;4.93;;;;;;;22.78;100.00;100416.84;5015397;28;20080;-57
2021/07/12 07:31:07;;;;;;;7.55;4.22;;;;;;;22.39;100.00;100416.91;5019622;28;21171;-57
2021/07/12 07:33:35;;;;;;;7.93;4.60;;;;;;;21.58;100.00;100404.53;5015710;28;20041;-57
2021/07/12 07:36:04;;;;;;;9.65;4.25;;;;;;;21.43;100.00;100414.03;5018100;28;20099;-57
2021/07/12 07:38:32;;;;;;;6.50;4.30;;;;;;;21.60;100.00;100413.25;5019256;28;20068;-57
2021/07/12 07:41:00;;;;;;;7.85;4.30;;;;;;;21.94;100.00;100419.50;5021475;28;20049;-57
2021/07/12 07:43:29;;;;;;;7.30;3.97;;;;;;;21.88;100.00;100411.53;5018398;28;20372;-58
2021/07/12 07:45:57;;;;;;;6.78;4.13;;;;;;;22.25;100.00;100409.06;5012962;28;20393;-60
2021/07/12 07:48:26;;;;;;;6.72;4.18;;;;;;;22.43;100.00;100404.47;5020677;28;20379;-60
2021/07/12 07:50:54;;;;;;;9.80;4.45;;;;;;;23.03;100.00;100405.41;5014752;28;20051;-60
2021/07/12 07:53:22;;;;;;;8.77;4.35;;;;;;;23.55;100.00;100399.41;5014059;28;20045;-59
2021/07/12 07:55:50;;;;;;;5.45;3.90;;;;;;;22.86;100.00;100394.63;5015499;28;20064;-60
2021/07/12 07:58:18;;;;;;;9.45;4.00;;;;;;;22.75;100.00;100401.84;5013596;28;20049;-56
2021/07/12 08:00:47;;;;;;;9.77;4.40;;;;;;;22.58;100.00;100396.47;5015288;28;20096;-59
2021/07/12 08:03:15;;;;;;;8.13;4.55;;;;;;;22.68;100.00;100396.59;5013336;28;20053;-59
2021/07/12 08:05:43;;;;;;;8.40;4.13;;;;;;;22.80;100.00;100398.38;5011398;28;20072;-60
2021/07/12 08:08:11;;;;;;;8.88;3.95;;;;;;;22.61;100.00;100398.69;5018180;28;20049;-60
2021/07/12 08:10:39;;;;;;;6.57;3.40;;;;;;;22.58;100.00;100391.03;5016093;28;20076;-59
2021/07/12 08:13:09;;;;;;;10.05;3.88;;;;;;;23.10;100.00;100386.16;5020865;28;20088;-60
2021/07/12 08:15:38;;;;;;;7.45;3.20;;;;;;;23.01;100.00;100394.78;5019983;28;20342;-59
2021/07/12 08:18:09;;;;;;;5.53;3.25;;;;;;;22.77;100.00;100393.44;5022223;28;20061;-59
2021/07/12 08:20:38;;;;;;;3.72;2.95;;;;;;;23.42;100.00;100390.81;5018588;28;20046;-59
2021/07/12 08:23:06;;;;;;;4.55;3.50;;;;;;;23.54;100.00;100383.31;5019898;28;20060;-59
2021/07/12 08:25:34;;;;;;;5.55;3.40;;;;;;;23.80;100.00;100387.06;5022398;28;20064;-59
2021/07/12 08:28:03;;;;;;;6.80;3.50;;;;;;;24.66;100.00;100381.56;5022572;28;20160;-59
2021/07/12 08:30:31;;;;;;;5.15;3.30;;;;;;;24.90;100.00;100379.16;5021774;28;20499;-59
2021/07/12 08:32:59;;;;;;;6.40;3.47;;;;;;;25.14;100.00;100378.66;5022181;28;20425;-58
2021/07/12 08:35:29;;;;;;;6.93;3.08;;;;;;;25.68;100.00;100378.16;5018192;28;20500;-59
2021/07/12 08:37:56;;;;;;;6.28;3.05;;;;;;;25.07;100.00;100379.72;5021113;28;20041;-58
2021/07/12 08:40:28;;;;;;;4.70;3.00;;;;;;;24.70;100.00;100380.75;5019195;28;20372;-59
2021/07/12 08:42:58;;;;;;;7.38;3.15;;;;;;;24.35;100.00;100382.22;5022544;28;20042;-58
2021/07/12 08:45:27;;;;;;;7.90;3.38;;;;;;;24.16;100.00;100381.84;5016195;28;20045;-59
2021/07/12 08:47:55;;;;;;;6.93;2.83;;;;;;;23.41;100.00;100372.84;5018983;28;20129;-58
2021/07/12 08:50:29;;;;;;;5.50;3.05;;;;;;;23.40;100.00;100374.75;5021113;28;20368;-58
2021/07/12 08:52:57;;;;;;;4.78;3.08;;;;;;;23.72;100.00;100374.72;5021213;28;20437;-58
2021/07/12 08:55:26;;;;;;;4.15;3.08;;;;;;;23.89;100.00;100373.78;5023846;28;20161;-59
2021/07/12 08:58:03;;;;;;;4.05;2.88;;;;;;;23.88;100.00;100370.22;5019907;28;20080;-58
2021/07/12 09:00:46;;;;;;;8.27;2.70;;;;;;;24.57;100.00;100373.03;5016310;28;20046;-58
2021/07/12 09:03:20;;;;;;;8.75;3.38;;;;;;;24.79;100.00;100361.13;5018246;28;20400;-58
2021/07/12 09:05:59;;;;;;;4.45;3.15;;;;;;;24.75;100.00;100356.19;5016581;28;20049;-58
2021/07/12 09:08:51;;;;;;;4.30;3.10;;;;;;;24.87;100.00;100350.47;5020608;28;20053;-59
2021/07/12 09:11:26;;;;;;;5.85;3.35;;;;;;;25.51;100.00;100359.31;5016937;28;20640;-59
2021/07/12 09:14:00;;;;;;;5.55;2.83;;;;;;;25.80;100.00;100357.91;5017685;28;20326;-59
2021/07/12 09:16:34;;;;;;;5.93;2.85;;;;;;;25.33;100.00;100349.72;5017459;28;20076;-58
2021/07/12 09:19:24;;;;;;;5.30;3.30;;;;;;;24.79;100.00;100344.75;5019546;28;20644;-58
2021/07/12 09:21:57;;;;;;;5.82;3.15;;;;;;;25.18;100.00;100353.25;5016778;28;20054;-59
2021/07/12 09:24:31;;;;;;;4.32;2.80;;;;;;;25.23;100.00;100349.69;5026028;28;20088;-58
2021/07/12 09:27:02;;;;;;;4.50;2.93;;;;;;;25.32;100.00;100353.56;5020163;28;20068;-59
2021/07/12 09:29:32;;;;;;;5.30;3.17;;;;;;;25.14;100.00;100351.34;5014773;28;20297;-58
2021/07/12 09:32:04;;;;;;;5.68;3.25;;;;;;;24.46;100.00;100353.06;5024454;28;20049;-58
2021/07/12 09:34:32;;;;;;;7.65;3.13;;;;;;;24.51;100.00;100361.28;5019883;28;20123;-58
2021/07/12 09:37:01;;;;;;;5.93;2.67;;;;;;;24.30;100.00;100370.44;5019683;28;20053;-58
2021/07/12 09:39:35;;;;;;;6.93;3.05;;;;;;;23.70;100.00;100367.88;5019723;28;20041;-59
2021/07/12 09:42:06;;;;;;;6.75;3.20;;;;;;;24.00;100.00;100371.94;5017270;28;20088;-61
2021/07/12 09:44:36;;;;;;;6.57;3.70;;;;;;;24.02;100.00;100376.03;5016574;28;20046;-58
2021/07/12 09:47:07;;;;;;;7.50;3.70;;;;;;;23.72;100.00;100377.44;5018840;28;20049;-58
2021/07/12 09:49:36;;;;;;;6.53;3.65;;;;;;;23.98;100.00;100371.38;5016989;28;20041;-58
2021/07/12 09:52:09;;;;;;;3.65;2.72;;;;;;;23.80;100.00;100367.97;5018305;28;20433;-58
2021/07/12 09:54:38;;;;;;;3.50;2.63;;;;;;;23.41;100.00;100365.50;5014287;28;20038;-61
2021/07/12 09:57:08;;;;;;;4.63;2.80;;;;;;;23.31;100.00;100359.97;5020900;28;20152;-60
2021/07/12 09:59:52;;;;;;;6.78;2.65;;;;;;;23.24;100.00;100354.72;5018460;28;20353;-61
2021/07/12 10:02:23;;;;;;;6.88;3.38;;;;;;;22.54;100.00;100357.25;5016907;28;20307;-57
2021/07/12 10:04:56;;;;;;;5.78;3.25;;;;;;;22.58;100.00;100358.38;5014153;28;20057;-59
2021/07/12 10:07:26;;;;;;;4.03;3.10;;;;;;;22.04;100.00;100355.50;5017031;28;20576;-59
2021/07/12 10:09:55;;;;;;;4.72;3.85;;;;;;;22.16;100.00;100362.47;5017139;28;20083;-57
2021/07/12 10:12:23;;;;;;;3.83;3.03;;;;;;;22.17;100.00;100350.50;5019482;28;20318;-57
2021/07/12 10:14:51;;;;;;;9.93;4.00;;;;;;;22.17;100.00;100350.50;5016325;28;20045;-58
2021/07/12 10:17:20;;;;;;;5.00;3.30;;;;;;;22.26;100.00;100359.06;5017558;28;20050;-60
2021/07/12 10:19:48;;;;;;;8.50;3.28;;;;;;;22.16;100.00;100364.38;5019189;28;20100;-58
2021/07/12 10:22:17;;;;;;;5.82;4.00;;;;;;;22.13;100.00;100362.97;5022166;28;20141;-57
2021/07/12 10:24:47;;;;;;;6.70;3.40;;;;;;;22.20;100.00;100360.06;5017454;28;20049;-60
2021/07/12 10:27:23;;;;;;;6.18;2.97;;;;;;;22.15;100.00;100360.00;5017424;28;20073;-57
2021/07/12 10:29:54;;;;;;;5.47;3.35;;;;;;;22.41;100.00;100361.19;5021725;28;20053;-58
2021/07/12 10:32:23;;;;;;;8.45;3.60;;;;;;;22.39;100.00;100359.78;5019531;28;20058;-60
2021/07/12 10:34:52;;;;;;;7.00;3.40;;;;;;;22.46;100.00;100355.78;5017935;28;20708;-59
2021/07/12 10:37:32;;;;;;;10.88;3.65;;;;;;;22.37;100.00;100351.03;5020947;28;20037;-59
2021/07/12 10:40:11;;;;;;;5.13;3.03;;;;;;;22.81;100.00;100362.72;5020934;28;20129;-57
2021/07/12 10:42:51;;;;;;;9.95;3.58;;;;;;;22.99;100.00;100358.84;5018273;28;20049;-57
2021/07/12 10:45:21;;;;;;;6.63;3.28;;;;;;;23.16;100.00;100357.91;5015676;28;20061;-60
2021/07/12 10:47:50;;;;;;;7.07;3.63;;;;;;;23.43;100.00;100348.88;5021122;28;20041;-60
2021/07/12 10:50:46;;;;;;;8.13;3.58;;;;;;;23.41;100.00;100338.25;5018539;28;20326;-60
2021/07/12 10:53:37;;;;;;;5.82;4.28;;;;;;;23.82;100.00;100333.09;5016913;28;20104;-60
2021/07/12 10:56:12;;;;;;;11.77;3.80;;;;;;;23.25;100.00;100334.59;5013577;28;20404;-59
2021/07/12 10:58:46;;;;;;;7.88;3.55;;;;;;;23.04;100.00;100331.66;5017433;28;20119;-57
2021/07/12 11:01:42;;;;;;;5.93;3.60;;;;;;;23.31;100.00;100322.66;5019122;28;20482;-58
2021/07/12 11:04:37;;;;;;;6.30;4.15;;;;;;;22.99;100.00;100333.50;5012479;28;20164;-57
2021/07/12 11:07:10;;;;;;;7.00;3.40;;;;;;;23.01;100.00;100321.28;5018985;28;20049;-57
2021/07/12 11:09:52;;;;;;;7.00;3.50;;;;;;;23.13;100.00;100320.31;5013505;28;20045;-57
2021/07/12 11:12:51;;;;;;;7.07;3.00;;;;;;;23.54;100.00;100323.38;5017919;28;20034;-59
2021/07/12 11:15:27;;;;;;;7.10;3.42;;;;;;;23.71;100.00;100321.28;5015133;28;20042;-60
2021/07/12 11:17:58;;;;;;;8.30;3.30;;;;;;;23.80;100.00;100310.75;5011557;28;20129;-59
2021/07/12 11:20:49;;;;;;;4.78;3.40;;;;;;;23.94;100.00;100313.81;5016147;28;20042;-57
2021/07/12 11:23:52;;;;;;;4.90;3.80;;;;;;;23.73;100.00;100321.88;5011742;28;20042;-57
2021/07/12 11:26:48;;;;;;;7.38;3.47;;;;;;;23.32;100.00;100326.19;4972502;28;20054;-60
2021/07/12 11:29:33;;;;;;;7.05;4.18;;;;;;;23.35;100.00;100329.22;4970847;28;20042;-59
2021/07/12 11:32:15;;;;;;;5.93;3.50;;;;;;;23.32;100.00;100337.06;5009122;28;20057;-59